createdAt,value
2023-04-20T00:00:24.309Z,98170.03
2023-04-20T00:02:54.183Z,98170.84
2023-04-20T00:05:23.782Z,98165.22
2023-04-20T00:07:54.870Z,98172.84
2023-04-20T00:10:24.061Z,98164.44
2023-04-20T00:12:53.160Z,98168.03
2023-04-20T00:15:22.377Z,98173.22
2023-04-20T00:17:51.708Z,98159.66
2023-04-20T00:20:20.849Z,98162.06
2023-04-20T00:22:49.845Z,98160.44
2023-04-20T00:25:21.171Z,98164.06
2023-04-20T00:27:50.409Z,98158.47
2023-04-20T00:30:19.690Z,98159.66
2023-04-20T00:32:48.714Z,98158.88
2023-04-20T00:35:17.856Z,98153.28
2023-04-20T00:37:46.929Z,98147.63
2023-04-20T00:40:15.937Z,98163.59
2023-04-20T00:42:46.421Z,98159.16
2023-04-20T00:45:15.647Z,98163.94
2023-04-20T00:47:45.037Z,98155.94
2023-04-20T00:50:14.241Z,98149.94
2023-04-20T00:52:43.590Z,98157.06
2023-04-20T00:55:13.749Z,98155.03
2023-04-20T00:57:46.464Z,98153.84
2023-04-20T01:00:16.062Z,98151.47
2023-04-20T01:02:45.379Z,98149.78
2023-04-20T01:05:14.937Z,98148.13
2023-04-20T01:07:44.017Z,98156.88
2023-04-20T01:10:13.086Z,98150.09
2023-04-20T01:12:42.247Z,98148.09
2023-04-20T01:15:14.252Z,98151.28
2023-04-20T01:17:44.069Z,98149.69
2023-04-20T01:20:14.677Z,98156.47
2023-04-20T01:22:49.806Z,98148.47
2023-04-20T01:25:20.303Z,98150.50
2023-04-20T01:27:49.584Z,98147.16
2023-04-20T01:30:18.618Z,98147.06
2023-04-20T01:32:47.873Z,98137.44
2023-04-20T01:35:17.908Z,98139.78
2023-04-20T01:37:48.768Z,98135.75
2023-04-20T01:40:17.848Z,98140.06
2023-04-20T01:42:46.872Z,98146.75
2023-04-20T01:45:17.004Z,98139.97
2023-04-20T01:47:46.177Z,98130.34
2023-04-20T01:50:15.340Z,98136.66
2023-04-20T01:52:44.375Z,98140.25
2023-04-20T01:55:14.872Z,98138.66
2023-04-20T01:57:44.666Z,98132.22
2023-04-20T02:00:17.499Z,98140.19
2023-04-20T02:02:46.762Z,98131.88
2023-04-20T02:05:15.961Z,98138.72
2023-04-20T02:07:44.988Z,98125.19
2023-04-20T02:10:15.521Z,98120.41
2023-04-20T02:12:47.611Z,98118.03
2023-04-20T02:15:16.699Z,98121.22
2023-04-20T02:17:46.364Z,98135.75
2023-04-20T02:20:15.596Z,98135.75
2023-04-20T02:22:44.761Z,98126.34
2023-04-20T02:25:15.380Z,98120.19
2023-04-20T02:27:45.581Z,98119.25
2023-04-20T02:30:15.127Z,98116.06
2023-04-20T02:32:45.034Z,98112.72
2023-04-20T02:35:14.167Z,98117.03
2023-04-20T02:37:45.428Z,98113.34
2023-04-20T02:40:16.487Z,98121.69
2023-04-20T02:42:45.490Z,98118.28
2023-04-20T02:45:14.818Z,98119.00
2023-04-20T02:47:47.026Z,98114.97
2023-04-20T02:50:17.200Z,98115.69
2023-04-20T02:53:21.317Z,98121.94
2023-04-20T02:56:06.806Z,98112.44
2023-04-20T02:58:44.585Z,98125.13
2023-04-20T03:01:19.916Z,98127.50
2023-04-20T03:03:51.336Z,98123.88
2023-04-20T03:06:21.222Z,98123.53
2023-04-20T03:08:56.499Z,98126.88
2023-04-20T03:11:46.602Z,98118.91
2023-04-20T03:14:24.883Z,98118.66
2023-04-20T03:16:54.038Z,98123.38
2023-04-20T03:19:23.382Z,98114.84
2023-04-20T03:21:52.407Z,98120.44
2023-04-20T03:24:22.378Z,98125.13
2023-04-20T03:26:52.870Z,98128.38
2023-04-20T03:29:34.370Z,98137.44
2023-04-20T03:32:04.810Z,98125.84
2023-04-20T03:34:34.035Z,98130.44
2023-04-20T03:37:03.220Z,98129.66
2023-04-20T03:39:32.298Z,98120.81
2023-04-20T03:42:03.756Z,98136.75
2023-04-20T03:44:32.882Z,98125.34
2023-04-20T03:47:02.189Z,98129.59
2023-04-20T03:49:34.240Z,98127.06
2023-04-20T03:52:03.356Z,98139.81
2023-04-20T03:54:32.647Z,98142.63
2023-04-20T03:57:03.962Z,98149.38
2023-04-20T03:59:33.035Z,98143.19
2023-04-20T04:02:05.996Z,98147.00
2023-04-20T04:04:35.325Z,98151.81
2023-04-20T04:07:04.551Z,98144.34
2023-04-20T04:09:33.756Z,98137.91
2023-04-20T04:12:06.831Z,98140.66
2023-04-20T04:14:36.876Z,98148.50
2023-04-20T04:17:08.123Z,98149.25
2023-04-20T04:19:39.829Z,98146.00
2023-04-20T04:22:09.447Z,98150.81
2023-04-20T04:24:44.902Z,98142.84
2023-04-20T04:27:19.783Z,98149.22
2023-04-20T04:29:56.709Z,98146.44
2023-04-20T04:32:26.267Z,98156.50
2023-04-20T04:34:55.796Z,98146.13
2023-04-20T04:37:24.960Z,98156.53
2023-04-20T04:39:58.263Z,98153.66
2023-04-20T04:42:36.810Z,98165.09
2023-04-20T04:45:10.462Z,98152.84
2023-04-20T04:47:42.504Z,98154.81
2023-04-20T04:50:13.162Z,98152.78
2023-04-20T04:52:42.252Z,98165.25
2023-04-20T04:55:11.560Z,98163.72
2023-04-20T04:57:43.539Z,98166.94
2023-04-20T05:00:14.091Z,98166.28
2023-04-20T05:02:43.265Z,98163.94
2023-04-20T05:05:12.378Z,98168.81
2023-04-20T05:07:41.433Z,98172.88
2023-04-20T05:10:10.541Z,98183.31
2023-04-20T05:12:41.608Z,98189.03
2023-04-20T05:15:11.778Z,98188.63
2023-04-20T05:17:40.928Z,98186.63
2023-04-20T05:20:12.129Z,98193.03
2023-04-20T05:22:41.183Z,98197.97
2023-04-20T05:25:13.810Z,98197.16
2023-04-20T05:27:44.481Z,98198.03
2023-04-20T05:30:21.430Z,98197.75
2023-04-20T05:32:52.677Z,98203.78
2023-04-20T05:35:22.496Z,98200.31
2023-04-20T05:37:51.760Z,98204.00
2023-04-20T05:40:20.763Z,98201.25
2023-04-20T05:42:51.786Z,98206.16
2023-04-20T05:45:20.865Z,98213.03
2023-04-20T05:47:56.931Z,98209.50
2023-04-20T05:50:26.628Z,98209.94
2023-04-20T05:52:55.944Z,98205.94
2023-04-20T05:55:25.672Z,98205.97
2023-04-20T05:57:56.115Z,98203.63
2023-04-20T06:00:26.154Z,98204.41
2023-04-20T06:02:55.726Z,98214.00
2023-04-20T06:05:25.093Z,98209.97
2023-04-20T06:07:54.293Z,98211.16
2023-04-20T06:10:23.697Z,98209.09
2023-04-20T06:12:52.750Z,98209.84
2023-04-20T06:15:23.350Z,98211.34
2023-04-20T06:17:52.422Z,98215.25
2023-04-20T06:20:21.696Z,98216.00
2023-04-20T06:22:50.911Z,98218.94
2023-04-20T06:25:20.187Z,98219.50
2023-04-20T06:27:51.277Z,98228.16
2023-04-20T06:30:23.281Z,98222.34
2023-04-20T06:32:52.324Z,98221.47
2023-04-20T06:35:22.672Z,98226.09
2023-04-20T06:37:51.722Z,98226.59
2023-04-20T06:40:20.765Z,98219.47
2023-04-20T06:42:51.503Z,98225.91
2023-04-20T06:45:22.189Z,98219.63
2023-04-20T06:47:51.185Z,98214.66
2023-04-20T06:50:20.393Z,98215.81
2023-04-20T06:52:49.417Z,98219.75
2023-04-20T06:55:19.217Z,98219.31
2023-04-20T06:57:48.384Z,98220.91
2023-04-20T07:00:18.952Z,98218.47
2023-04-20T07:02:51.407Z,98215.00
2023-04-20T07:05:20.766Z,98217.25
2023-04-20T07:07:49.844Z,98215.06
2023-04-20T07:10:18.874Z,98218.25
2023-04-20T07:12:48.375Z,98219.47
2023-04-20T07:15:17.527Z,98222.16
2023-04-20T07:17:47.927Z,98225.91
2023-04-20T07:20:17.010Z,98222.03
2023-04-20T07:22:47.072Z,98221.06
2023-04-20T07:25:17.790Z,98220.22
2023-04-20T07:27:46.904Z,98219.09
2023-04-20T07:30:16.596Z,98218.44
2023-04-20T07:32:47.018Z,98231.13
2023-04-20T07:35:16.488Z,98224.56
2023-04-20T07:37:45.598Z,98230.03
2023-04-20T07:40:16.871Z,98233.28
2023-04-20T07:42:45.987Z,98229.75
2023-04-20T07:45:15.469Z,98239.88
2023-04-20T07:47:47.388Z,98235.22
2023-04-20T07:50:18.339Z,98234.78
2023-04-20T07:52:47.388Z,98227.88
2023-04-20T07:55:17.384Z,98229.88
2023-04-20T07:57:46.650Z,98232.91
2023-04-20T08:00:18.130Z,98236.31
2023-04-20T08:02:48.062Z,98237.53
2023-04-20T08:05:18.872Z,98232.97
2023-04-20T08:07:48.477Z,98241.59
2023-04-20T08:10:17.613Z,98237.09
2023-04-20T08:12:47.135Z,98236.75
2023-04-20T08:15:16.204Z,98233.81
2023-04-20T08:17:45.421Z,98235.75
2023-04-20T08:20:14.430Z,98228.66
2023-04-20T08:22:44.836Z,98230.47
2023-04-20T08:25:13.942Z,98240.19
2023-04-20T08:27:42.981Z,98230.59
2023-04-20T08:30:13.351Z,98226.19
2023-04-20T08:32:42.476Z,98229.06
2023-04-20T08:35:11.608Z,98224.09
2023-04-20T08:37:41.961Z,98218.69
2023-04-20T08:40:15.267Z,98223.00
2023-04-20T08:42:44.437Z,98224.44
2023-04-20T08:45:14.163Z,98216.28
2023-04-20T08:47:44.481Z,98222.53
2023-04-20T08:50:13.550Z,98216.66
2023-04-20T08:52:42.556Z,98229.56
2023-04-20T08:55:17.382Z,98222.84
2023-04-20T08:57:48.663Z,98217.69
2023-04-20T09:00:18.769Z,98218.09
2023-04-20T09:02:52.675Z,98222.22
2023-04-20T09:05:30.747Z,98227.81
2023-04-20T09:08:05.231Z,98223.19
2023-04-20T09:10:44.472Z,98231.03
2023-04-20T09:13:23.013Z,98220.50
2023-04-20T09:15:52.129Z,98224.81
2023-04-20T09:18:21.445Z,98229.75
2023-04-20T09:20:51.043Z,98216.72
2023-04-20T09:23:22.349Z,98225.25
2023-04-20T09:25:53.912Z,98210.22
2023-04-20T09:28:23.286Z,98215.22
2023-04-20T09:30:52.445Z,98219.38
2023-04-20T09:33:21.420Z,98215.97
2023-04-20T09:35:50.514Z,98224.66
2023-04-20T09:38:27.927Z,98220.59
2023-04-20T09:41:01.557Z,98215.53
2023-04-20T09:43:31.894Z,98217.00
2023-04-20T09:46:01.458Z,98218.38
2023-04-20T09:48:32.110Z,98219.75
2023-04-20T09:51:03.833Z,98216.31
2023-04-20T09:53:34.254Z,98212.38
2023-04-20T09:56:06.531Z,98209.50
2023-04-20T09:58:37.378Z,98218.53
2023-04-20T10:01:11.031Z,98212.53
2023-04-20T10:03:43.232Z,98212.63
2023-04-20T10:06:21.370Z,98213.13
2023-04-20T10:08:51.821Z,98211.38
2023-04-20T10:11:41.119Z,98211.84
2023-04-20T10:14:18.779Z,98206.31
2023-04-20T10:16:59.603Z,98206.50
2023-04-20T10:19:39.802Z,98204.41
2023-04-20T10:22:09.772Z,98212.63
2023-04-20T10:24:39.494Z,98216.63
2023-04-20T10:27:20.200Z,98206.31
2023-04-20T10:29:49.521Z,98208.34
2023-04-20T10:32:26.964Z,98202.78
2023-04-20T10:35:04.997Z,98199.75
2023-04-20T10:37:34.514Z,98208.63
2023-04-20T10:40:07.444Z,98195.59
2023-04-20T10:42:45.340Z,98197.47
2023-04-20T10:45:14.654Z,98195.81
2023-04-20T10:47:45.461Z,98196.84
2023-04-20T10:50:18.192Z,98196.63
2023-04-20T10:52:47.357Z,98190.78
2023-04-20T10:55:21.229Z,98184.28
2023-04-20T10:57:52.581Z,98178.28
2023-04-20T11:00:25.012Z,98185.41
2023-04-20T11:02:56.847Z,98169.66
2023-04-20T11:05:28.373Z,98172.94
2023-04-20T11:07:59.833Z,98175.84
2023-04-20T11:10:40.800Z,98182.38
2023-04-20T11:13:22.408Z,98178.03
2023-04-20T11:15:51.536Z,98174.94
2023-04-20T11:18:21.542Z,98169.59
2023-04-20T11:20:56.606Z,98175.66
2023-04-20T11:23:27.460Z,98179.03
2023-04-20T11:25:58.150Z,98184.00
2023-04-20T11:28:34.583Z,98184.31
2023-04-20T11:31:04.405Z,98180.66
2023-04-20T11:33:34.304Z,98176.38
2023-04-20T11:36:03.424Z,98183.97
2023-04-20T11:38:34.856Z,98175.88
2023-04-20T11:41:07.927Z,98173.56
2023-04-20T11:43:38.389Z,98168.06
2023-04-20T11:46:15.741Z,98173.31
2023-04-20T11:48:44.974Z,98177.38
2023-04-20T11:51:14.132Z,98177.22
2023-04-20T11:53:43.160Z,98162.06
2023-04-20T11:56:12.285Z,98173.50
2023-04-20T11:58:42.937Z,98175.75
2023-04-20T12:01:11.984Z,98171.59
2023-04-20T12:03:41.115Z,98171.25
2023-04-20T12:06:10.397Z,98163.59
2023-04-20T12:08:39.658Z,98158.81
2023-04-20T12:11:08.830Z,98162.44
2023-04-20T12:13:38.207Z,98146.09
2023-04-20T12:16:16.460Z,98148.97
2023-04-20T12:18:49.003Z,98151.13
2023-04-20T12:21:21.435Z,98146.34
2023-04-20T12:23:51.225Z,98141.75
2023-04-20T12:26:22.558Z,98141.19
2023-04-20T12:28:55.663Z,98142.03
2023-04-20T12:31:26.760Z,98137.13
2023-04-20T12:33:56.541Z,98146.59
2023-04-20T12:36:25.876Z,98134.31
2023-04-20T12:38:59.038Z,98134.22
2023-04-20T12:41:28.089Z,98138.06
2023-04-20T12:43:57.321Z,98132.97
2023-04-20T12:46:27.763Z,98131.66
2023-04-20T12:48:57.168Z,98132.66
2023-04-20T12:51:26.909Z,98139.34
2023-04-20T12:53:55.939Z,98137.78
2023-04-20T12:56:25.009Z,98143.44
2023-04-20T12:58:54.063Z,98132.25
2023-04-20T13:01:23.405Z,98132.47
2023-04-20T13:03:54.020Z,98132.34
2023-04-20T13:06:23.471Z,98137.13
2023-04-20T13:08:52.479Z,98137.44
2023-04-20T13:11:22.516Z,98142.06
2023-04-20T13:13:51.836Z,98124.94
2023-04-20T13:16:20.976Z,98125.69
2023-04-20T13:18:50.469Z,98118.59
2023-04-20T13:21:21.169Z,98113.44
2023-04-20T13:23:51.298Z,98106.38
2023-04-20T13:26:20.847Z,98111.59
2023-04-20T13:28:50.153Z,98110.59
2023-04-20T13:31:19.851Z,98106.03
2023-04-20T13:33:49.257Z,98104.03
2023-04-20T13:36:18.541Z,98109.88
2023-04-20T13:38:51.290Z,98111.38
2023-04-20T13:41:20.606Z,98115.22
2023-04-20T13:43:49.594Z,98112.00
2023-04-20T13:46:20.139Z,98115.03
2023-04-20T13:48:51.827Z,98111.41
2023-04-20T13:51:21.274Z,98111.47
2023-04-20T13:53:52.189Z,98103.97
2023-04-20T13:56:22.731Z,98093.19
2023-04-20T13:58:51.965Z,98093.41
2023-04-20T14:01:22.829Z,98088.16
2023-04-20T14:03:52.561Z,98083.91
2023-04-20T14:06:21.989Z,98087.09
2023-04-20T14:08:52.434Z,98082.34
2023-04-20T14:11:21.679Z,98081.78
2023-04-20T14:13:52.389Z,98084.88
2023-04-20T14:16:23.047Z,98073.63
2023-04-20T14:18:52.408Z,98076.97
2023-04-20T14:21:21.531Z,98080.94
2023-04-20T14:23:53.626Z,98077.41
2023-04-20T14:26:22.739Z,98074.41
2023-04-20T14:28:53.544Z,98073.91
2023-04-20T14:31:22.571Z,98072.38
2023-04-20T14:33:51.682Z,98064.84
2023-04-20T14:36:21.262Z,98074.22
2023-04-20T14:38:51.917Z,98080.53
2023-04-20T14:41:21.127Z,98069.13
2023-04-20T14:43:50.178Z,98067.78
2023-04-20T14:46:19.958Z,98062.56
2023-04-20T14:48:49.117Z,98073.63
2023-04-20T14:51:19.822Z,98069.84
2023-04-20T14:53:48.908Z,98070.50
2023-04-20T14:56:20.958Z,98064.25
2023-04-20T14:58:54.537Z,98066.84
2023-04-20T15:01:24.965Z,98075.19
2023-04-20T15:03:54.160Z,98087.63
2023-04-20T15:06:23.410Z,98094.88
2023-04-20T15:08:54.654Z,98084.81
2023-04-20T15:11:25.222Z,98077.56
2023-04-20T15:13:54.376Z,98075.50
2023-04-20T15:16:23.913Z,98066.06
2023-04-20T15:18:54.685Z,98059.25
2023-04-20T15:21:24.289Z,98061.34
2023-04-20T15:23:53.468Z,98063.03
2023-04-20T15:26:23.674Z,98060.69
2023-04-20T15:28:54.247Z,98060.34
2023-04-20T15:31:23.395Z,98058.78
2023-04-20T15:33:52.402Z,98055.59
2023-04-20T15:36:22.001Z,98054.59
2023-04-20T15:38:53.486Z,98052.03
2023-04-20T15:41:23.300Z,98059.88
2023-04-20T15:43:53.658Z,98059.41
2023-04-20T15:46:24.448Z,98059.84
2023-04-20T15:48:56.057Z,98060.00
2023-04-20T15:51:25.433Z,98055.91
2023-04-20T15:53:54.409Z,98058.75
2023-04-20T15:56:24.341Z,98064.88
2023-04-20T15:58:54.742Z,98060.91
2023-04-20T16:01:24.560Z,98063.09
2023-04-20T16:03:53.973Z,98059.47
2023-04-20T16:06:24.197Z,98058.84
2023-04-20T16:08:57.308Z,98062.06
2023-04-20T16:11:26.482Z,98063.94
2023-04-20T16:13:57.944Z,98060.78
2023-04-20T16:16:27.193Z,98062.53
2023-04-20T16:18:56.449Z,98062.53
2023-04-20T16:21:26.488Z,98056.69
2023-04-20T16:23:57.002Z,98063.34
2023-04-20T16:26:26.858Z,98054.88
2023-04-20T16:28:57.442Z,98054.50
2023-04-20T16:31:26.952Z,98050.56
2023-04-20T16:33:56.067Z,98054.47
2023-04-20T16:36:25.630Z,98063.28
2023-04-20T16:38:54.782Z,98056.91
2023-04-20T16:41:25.786Z,98064.75
2023-04-20T16:43:56.489Z,98065.00
2023-04-20T16:46:26.174Z,98068.59
2023-04-20T16:48:55.249Z,98068.38
2023-04-20T16:51:24.334Z,98063.88
2023-04-20T16:53:53.466Z,98063.41
2023-04-20T16:56:22.555Z,98071.00
2023-04-20T16:58:51.633Z,98068.91
2023-04-20T17:01:22.363Z,98064.03
2023-04-20T17:03:52.216Z,98061.78
2023-04-20T17:06:21.514Z,98064.69
2023-04-20T17:08:50.576Z,98062.44
2023-04-20T17:11:20.823Z,98062.16
2023-04-20T17:13:50.163Z,98061.88
2023-04-20T17:16:21.974Z,98065.66
2023-04-20T17:18:52.016Z,98068.75
2023-04-20T17:21:21.122Z,98065.06
2023-04-20T17:23:50.149Z,98077.53
2023-04-20T17:26:19.175Z,98073.22
2023-04-20T17:28:48.252Z,98070.34
2023-04-20T17:31:17.436Z,98078.03
2023-04-20T17:33:48.491Z,98077.06
2023-04-20T17:36:17.692Z,98087.53
2023-04-20T17:38:46.785Z,98088.75
2023-04-20T17:41:15.785Z,98085.53
2023-04-20T17:43:45.080Z,98089.75
2023-04-20T17:46:14.983Z,98091.00
2023-04-20T17:48:44.132Z,98096.16
2023-04-20T17:51:17.327Z,98092.91
2023-04-20T17:53:46.642Z,98098.50
2023-04-20T17:56:16.299Z,98102.78
2023-04-20T17:58:45.472Z,98100.56
2023-04-20T18:01:15.089Z,98094.34
2023-04-20T18:03:44.420Z,98102.69
2023-04-20T18:06:13.490Z,98099.09
2023-04-20T18:08:44.080Z,98110.41
2023-04-20T18:11:13.791Z,98114.53
2023-04-20T18:13:44.707Z,98118.41
2023-04-20T18:16:13.820Z,98115.88
2023-04-20T18:18:42.919Z,98115.13
2023-04-20T18:21:14.353Z,98124.84
2023-04-20T18:23:44.871Z,98121.66
2023-04-20T18:26:17.566Z,98117.75
2023-04-20T18:28:47.194Z,98115.75
2023-04-20T18:31:16.457Z,98122.31
2023-04-20T18:33:45.455Z,98127.19
2023-04-20T18:36:14.548Z,98131.66
2023-04-20T18:38:45.067Z,98131.41
2023-04-20T18:41:14.599Z,98135.09
2023-04-20T18:43:45.458Z,98140.06
2023-04-20T18:46:14.977Z,98139.13
2023-04-20T18:48:44.234Z,98138.31
2023-04-20T18:51:13.580Z,98143.59
2023-04-20T18:53:44.007Z,98140.09
2023-04-20T18:56:13.294Z,98147.88
2023-04-20T18:58:42.812Z,98155.75
2023-04-20T19:01:11.878Z,98152.00
2023-04-20T19:03:41.264Z,98145.78
2023-04-20T19:06:10.595Z,98146.72
2023-04-20T19:08:39.710Z,98146.69
2023-04-20T19:11:10.752Z,98152.44
2023-04-20T19:13:44.297Z,98148.50
2023-04-20T19:16:14.200Z,98148.09
2023-04-20T19:18:46.824Z,98149.72
2023-04-20T19:21:16.165Z,98154.13
2023-04-20T19:23:45.131Z,98156.06
2023-04-20T19:26:15.669Z,98152.88
2023-04-20T19:28:45.890Z,98150.81
2023-04-20T19:31:17.160Z,98158.00
2023-04-20T19:33:46.284Z,98165.66
2023-04-20T19:36:15.477Z,98169.03
2023-04-20T19:38:44.877Z,98165.06
2023-04-20T19:41:15.566Z,98154.03
2023-04-20T19:43:44.590Z,98163.81
2023-04-20T19:46:16.906Z,98159.97
2023-04-20T19:48:46.642Z,98155.22
2023-04-20T19:51:15.871Z,98158.47
2023-04-20T19:53:46.619Z,98155.66
2023-04-20T19:56:17.270Z,98153.66
2023-04-20T19:58:46.464Z,98148.06
2023-04-20T20:01:17.779Z,98153.25
2023-04-20T20:03:47.077Z,98147.25
2023-04-20T20:06:16.405Z,98152.88
2023-04-20T20:08:45.878Z,98158.06
2023-04-20T20:11:16.623Z,98159.31
2023-04-20T20:13:45.772Z,98150.47
2023-04-20T20:16:14.926Z,98156.94
2023-04-20T20:18:45.017Z,98160.19
2023-04-20T20:21:14.176Z,98160.25
2023-04-20T20:23:43.488Z,98158.59
2023-04-20T20:26:12.592Z,98160.97
2023-04-20T20:28:44.577Z,98153.88
2023-04-20T20:31:13.828Z,98162.69
2023-04-20T20:33:43.144Z,98158.75
2023-04-20T20:36:12.282Z,98156.75
2023-04-20T20:38:41.363Z,98156.34
2023-04-20T20:41:13.921Z,98161.06
2023-04-20T20:43:45.779Z,98158.59
2023-04-20T20:46:17.299Z,98159.84
2023-04-20T20:48:46.373Z,98158.66
2023-04-20T20:51:16.266Z,98163.16
2023-04-20T20:53:46.328Z,98159.19
2023-04-20T20:56:15.451Z,98164.41
2023-04-20T20:58:46.076Z,98167.59
2023-04-20T21:01:15.113Z,98166.03
2023-04-20T21:03:44.265Z,98155.28
2023-04-20T21:06:13.453Z,98166.88
2023-04-20T21:08:42.527Z,98162.84
2023-04-20T21:11:11.558Z,98172.03
2023-04-20T21:13:40.603Z,98163.25
2023-04-20T21:16:11.172Z,98159.66
2023-04-20T21:18:40.432Z,98163.25
2023-04-20T21:21:13.655Z,98162.88
2023-04-20T21:23:42.783Z,98164.88
2023-04-20T21:26:11.895Z,98171.25
2023-04-20T21:28:40.946Z,98172.84
2023-04-20T21:31:11.415Z,98169.25
2023-04-20T21:33:40.566Z,98178.44
2023-04-20T21:36:10.085Z,98174.84
2023-04-20T21:38:39.385Z,98180.44
2023-04-20T21:41:08.639Z,98176.44
2023-04-20T21:43:37.825Z,98170.84
2023-04-20T21:46:07.012Z,98175.63
2023-04-20T21:48:37.537Z,98180.84
2023-04-20T21:51:06.712Z,98175.66
2023-04-20T21:53:35.769Z,98162.47
2023-04-20T21:56:04.949Z,98184.44
2023-04-20T21:58:33.939Z,98188.41
2023-04-20T22:01:03.055Z,98185.16
2023-04-20T22:03:34.884Z,98188.38
2023-04-20T22:06:07.484Z,98193.16
2023-04-20T22:08:39.849Z,98180.44
2023-04-20T22:11:09.626Z,98182.00
2023-04-20T22:13:38.959Z,98190.38
2023-04-20T22:16:08.466Z,98185.22
2023-04-20T22:18:37.493Z,98187.97
2023-04-20T22:21:07.952Z,98192.75
2023-04-20T22:23:36.942Z,98187.56
2023-04-20T22:26:06.263Z,98189.56
2023-04-20T22:28:35.262Z,98193.16
2023-04-20T22:31:04.443Z,98189.16
2023-04-20T22:33:33.518Z,98194.69
2023-04-20T22:36:03.396Z,98185.91
2023-04-20T22:38:36.337Z,98197.75
2023-04-20T22:41:05.791Z,98190.50
2023-04-20T22:43:34.904Z,98191.66
2023-04-20T22:46:04.632Z,98197.25
2023-04-20T22:48:33.780Z,98201.00
2023-04-20T22:51:02.951Z,98201.84
2023-04-20T22:53:34.035Z,98199.41
2023-04-20T22:56:08.182Z,98198.56
2023-04-20T22:58:37.434Z,98198.53
2023-04-20T23:01:06.799Z,98196.47
2023-04-20T23:03:36.105Z,98206.41
2023-04-20T23:06:07.076Z,98215.16
2023-04-20T23:08:37.672Z,98203.16
2023-04-20T23:11:08.628Z,98205.22
2023-04-20T23:13:38.950Z,98198.56
2023-04-20T23:16:08.929Z,98205.63
2023-04-20T23:18:38.663Z,98203.25
2023-04-20T23:21:07.693Z,98207.22
2023-04-20T23:23:38.159Z,98202.41
2023-04-20T23:26:07.453Z,98202.69
2023-04-20T23:28:36.600Z,98205.97
2023-04-20T23:31:06.119Z,98207.06
2023-04-20T23:33:35.117Z,98198.25
2023-04-20T23:36:04.412Z,98197.44
2023-04-20T23:38:33.527Z,98207.50
2023-04-20T23:41:10.613Z,98205.59
2023-04-20T23:43:40.269Z,98208.69
2023-04-20T23:46:10.496Z,98201.78
2023-04-20T23:48:39.527Z,98206.84
2023-04-20T23:51:08.490Z,98211.34
2023-04-20T23:53:37.849Z,98202.16
2023-04-20T23:56:09.229Z,98200.56
2023-04-20T23:58:38.767Z,98202.16
